sensor_id;sensor_type;location;lat;lon;timestamp;P1;durP1;ratioP1;P2;durP2;ratioP2
60714;SDS011;46564;53.096;8.246;2023-08-17T00:04:42;6.18;;;1.27;;
60714;SDS011;46564;53.096;8.246;2023-08-17T00:09:43;4.35;;;1.42;;
60714;SDS011;46564;53.096;8.246;2023-08-17T00:14:45;7.80;;;1.60;;
60714;SDS011;46564;53.096;8.246;2023-08-17T00:19:46;5.78;;;1.77;;
60714;SDS011;46564;53.096;8.246;2023-08-17T00:24:48;10.50;;;1.70;;
60714;SDS011;46564;53.096;8.246;2023-08-17T00:29:49;8.43;;;1.63;;
60714;SDS011;46564;53.096;8.246;2023-08-17T00:34:50;6.72;;;1.92;;
60714;SDS011;46564;53.096;8.246;2023-08-17T00:39:52;5.57;;;1.85;;
60714;SDS011;46564;53.096;8.246;2023-08-17T00:44:53;6.07;;;1.92;;
60714;SDS011;46564;53.096;8.246;2023-08-17T00:49:55;5.05;;;1.63;;
60714;SDS011;46564;53.096;8.246;2023-08-17T00:54:58;11.50;;;2.47;;
60714;SDS011;46564;53.096;8.246;2023-08-17T01:00:01;6.47;;;1.70;;
60714;SDS011;46564;53.096;8.246;2023-08-17T01:05:06;4.07;;;1.38;;
60714;SDS011;46564;53.096;8.246;2023-08-17T01:10:08;5.30;;;1.48;;
60714;SDS011;46564;53.096;8.246;2023-08-17T01:15:18;7.00;;;1.92;;
60714;SDS011;46564;53.096;8.246;2023-08-17T01:20:25;6.00;;;1.80;;
60714;SDS011;46564;53.096;8.246;2023-08-17T01:25:27;6.05;;;2.03;;
60714;SDS011;46564;53.096;8.246;2023-08-17T01:30:28;6.63;;;1.60;;
60714;SDS011;46564;53.096;8.246;2023-08-17T01:35:37;5.45;;;1.70;;
60714;SDS011;46564;53.096;8.246;2023-08-17T01:40:43;7.07;;;1.77;;
60714;SDS011;46564;53.096;8.246;2023-08-17T01:45:46;7.07;;;1.67;;
60714;SDS011;46564;53.096;8.246;2023-08-17T01:51:09;5.05;;;1.80;;
60714;SDS011;46564;53.096;8.246;2023-08-17T01:56:12;9.90;;;1.55;;
60714;SDS011;46564;53.096;8.246;2023-08-17T02:01:13;5.55;;;1.67;;
60714;SDS011;46564;53.096;8.246;2023-08-17T02:06:15;5.88;;;1.55;;
60714;SDS011;46564;53.096;8.246;2023-08-17T02:11:16;5.13;;;1.48;;
60714;SDS011;46564;53.096;8.246;2023-08-17T02:16:17;7.00;;;1.90;;
60714;SDS011;46564;53.096;8.246;2023-08-17T02:21:19;4.63;;;1.48;;
60714;SDS011;46564;53.096;8.246;2023-08-17T02:26:20;7.38;;;1.77;;
60714;SDS011;46564;53.096;8.246;2023-08-17T02:31:22;4.43;;;1.50;;
60714;SDS011;46564;53.096;8.246;2023-08-17T02:36:23;6.65;;;1.88;;
60714;SDS011;46564;53.096;8.246;2023-08-17T02:41:24;4.60;;;1.70;;
60714;SDS011;46564;53.096;8.246;2023-08-17T02:46:26;5.45;;;1.73;;
60714;SDS011;46564;53.096;8.246;2023-08-17T02:51:27;4.95;;;1.48;;
60714;SDS011;46564;53.096;8.246;2023-08-17T02:56:29;4.70;;;1.63;;
60714;SDS011;46564;53.096;8.246;2023-08-17T03:01:30;5.70;;;1.58;;
60714;SDS011;46564;53.096;8.246;2023-08-17T03:06:32;5.57;;;2.03;;
60714;SDS011;46564;53.096;8.246;2023-08-17T03:11:33;4.38;;;1.60;;
60714;SDS011;46564;53.096;8.246;2023-08-17T03:16:35;9.52;;;2.03;;
60714;SDS011;46564;53.096;8.246;2023-08-17T03:21:37;4.28;;;1.55;;
60714;SDS011;46564;53.096;8.246;2023-08-17T03:26:39;5.85;;;1.80;;
60714;SDS011;46564;53.096;8.246;2023-08-17T03:31:40;4.43;;;1.67;;
60714;SDS011;46564;53.096;8.246;2023-08-17T03:36:41;7.80;;;1.90;;
60714;SDS011;46564;53.096;8.246;2023-08-17T03:41:43;4.38;;;1.58;;
60714;SDS011;46564;53.096;8.246;2023-08-17T03:46:44;6.47;;;1.58;;
60714;SDS011;46564;53.096;8.246;2023-08-17T03:51:45;6.45;;;1.77;;
60714;SDS011;46564;53.096;8.246;2023-08-17T03:56:47;5.53;;;1.60;;
60714;SDS011;46564;53.096;8.246;2023-08-17T04:01:50;7.53;;;1.98;;
60714;SDS011;46564;53.096;8.246;2023-08-17T04:06:51;5.32;;;1.92;;
60714;SDS011;46564;53.096;8.246;2023-08-17T04:11:53;2.95;;;1.30;;
60714;SDS011;46564;53.096;8.246;2023-08-17T04:16:54;5.07;;;2.00;;
60714;SDS011;46564;53.096;8.246;2023-08-17T04:21:55;5.75;;;1.95;;
60714;SDS011;46564;53.096;8.246;2023-08-17T04:26:57;8.63;;;1.95;;
60714;SDS011;46564;53.096;8.246;2023-08-17T04:31:58;6.50;;;1.70;;
60714;SDS011;46564;53.096;8.246;2023-08-17T04:37:00;6.97;;;2.20;;
60714;SDS011;46564;53.096;8.246;2023-08-17T04:42:02;5.78;;;2.15;;
60714;SDS011;46564;53.096;8.246;2023-08-17T04:47:04;4.40;;;1.70;;
60714;SDS011;46564;53.096;8.246;2023-08-17T04:52:05;6.88;;;1.70;;
60714;SDS011;46564;53.096;8.246;2023-08-17T04:57:07;4.00;;;1.55;;
60714;SDS011;46564;53.096;8.246;2023-08-17T05:02:08;8.32;;;2.70;;
60714;SDS011;46564;53.096;8.246;2023-08-17T05:07:10;6.50;;;1.95;;
60714;SDS011;46564;53.096;8.246;2023-08-17T05:12:11;4.70;;;1.58;;
60714;SDS011;46564;53.096;8.246;2023-08-17T05:17:13;9.00;;;2.80;;
60714;SDS011;46564;53.096;8.246;2023-08-17T05:22:14;11.02;;;2.10;;
60714;SDS011;46564;53.096;8.246;2023-08-17T05:27:15;11.75;;;2.10;;
60714;SDS011;46564;53.096;8.246;2023-08-17T05:32:17;9.80;;;2.00;;
60714;SDS011;46564;53.096;8.246;2023-08-17T05:37:18;5.63;;;2.25;;
60714;SDS011;46564;53.096;8.246;2023-08-17T05:42:20;9.02;;;2.05;;
60714;SDS011;46564;53.096;8.246;2023-08-17T05:47:21;7.65;;;1.63;;
60714;SDS011;46564;53.096;8.246;2023-08-17T05:52:22;7.28;;;2.20;;
60714;SDS011;46564;53.096;8.246;2023-08-17T05:57:24;3.80;;;1.48;;
60714;SDS011;46564;53.096;8.246;2023-08-17T06:02:26;7.15;;;2.25;;
60714;SDS011;46564;53.096;8.246;2023-08-17T06:07:27;10.15;;;2.65;;
60714;SDS011;46564;53.096;8.246;2023-08-17T06:12:29;10.35;;;3.13;;
60714;SDS011;46564;53.096;8.246;2023-08-17T06:17:30;8.95;;;2.58;;
60714;SDS011;46564;53.096;8.246;2023-08-17T06:22:32;5.80;;;1.70;;
60714;SDS011;46564;53.096;8.246;2023-08-17T06:27:33;4.93;;;2.08;;
60714;SDS011;46564;53.096;8.246;2023-08-17T06:32:35;14.30;;;2.70;;
60714;SDS011;46564;53.096;8.246;2023-08-17T06:37:37;12.63;;;2.55;;
60714;SDS011;46564;53.096;8.246;2023-08-17T06:42:38;7.30;;;2.40;;
60714;SDS011;46564;53.096;8.246;2023-08-17T06:47:40;10.45;;;2.40;;
60714;SDS011;46564;53.096;8.246;2023-08-17T06:52:41;8.70;;;2.55;;
60714;SDS011;46564;53.096;8.246;2023-08-17T06:57:43;6.40;;;2.05;;
60714;SDS011;46564;53.096;8.246;2023-08-17T07:02:44;5.47;;;2.55;;
60714;SDS011;46564;53.096;8.246;2023-08-17T07:07:55;8.80;;;2.60;;
60714;SDS011;46564;53.096;8.246;2023-08-17T07:12:56;7.32;;;2.88;;
60714;SDS011;46564;53.096;8.246;2023-08-17T07:17:58;7.28;;;3.13;;
60714;SDS011;46564;53.096;8.246;2023-08-17T07:22:59;7.85;;;2.90;;
60714;SDS011;46564;53.096;8.246;2023-08-17T07:28:01;9.77;;;2.88;;
60714;SDS011;46564;53.096;8.246;2023-08-17T07:33:02;10.15;;;3.70;;
60714;SDS011;46564;53.096;8.246;2023-08-17T07:38:04;11.10;;;3.00;;
60714;SDS011;46564;53.096;8.246;2023-08-17T07:43:09;5.55;;;2.40;;
60714;SDS011;46564;53.096;8.246;2023-08-17T07:48:11;6.68;;;3.00;;
60714;SDS011;46564;53.096;8.246;2023-08-17T07:53:12;8.32;;;2.78;;
60714;SDS011;46564;53.096;8.246;2023-08-17T07:58:14;6.95;;;2.42;;
60714;SDS011;46564;53.096;8.246;2023-08-17T08:03:15;7.82;;;2.35;;
60714;SDS011;46564;53.096;8.246;2023-08-17T08:08:17;6.72;;;2.55;;
60714;SDS011;46564;53.096;8.246;2023-08-17T08:13:18;12.48;;;3.05;;
60714;SDS011;46564;53.096;8.246;2023-08-17T08:18:20;7.35;;;2.65;;
60714;SDS011;46564;53.096;8.246;2023-08-17T08:23:21;7.80;;;2.97;;
60714;SDS011;46564;53.096;8.246;2023-08-17T08:28:22;8.07;;;2.88;;
60714;SDS011;46564;53.096;8.246;2023-08-17T08:33:24;8.15;;;3.20;;
60714;SDS011;46564;53.096;8.246;2023-08-17T08:38:25;10.68;;;3.50;;
60714;SDS011;46564;53.096;8.246;2023-08-17T08:43:27;9.80;;;3.35;;
60714;SDS011;46564;53.096;8.246;2023-08-17T08:48:28;9.20;;;3.22;;
60714;SDS011;46564;53.096;8.246;2023-08-17T08:53:43;9.95;;;3.47;;
60714;SDS011;46564;53.096;8.246;2023-08-17T08:58:46;14.05;;;4.22;;
60714;SDS011;46564;53.096;8.246;2023-08-17T09:03:48;9.15;;;4.05;;
60714;SDS011;46564;53.096;8.246;2023-08-17T09:08:50;8.32;;;3.75;;
60714;SDS011;46564;53.096;8.246;2023-08-17T09:13:52;11.00;;;3.95;;
60714;SDS011;46564;53.096;8.246;2023-08-17T09:18:54;9.27;;;4.57;;
60714;SDS011;46564;53.096;8.246;2023-08-17T09:23:55;9.35;;;3.92;;
60714;SDS011;46564;53.096;8.246;2023-08-17T09:29:00;9.38;;;3.70;;
60714;SDS011;46564;53.096;8.246;2023-08-17T09:34:18;11.35;;;3.78;;
60714;SDS011;46564;53.096;8.246;2023-08-17T09:39:19;6.88;;;3.17;;
60714;SDS011;46564;53.096;8.246;2023-08-17T09:44:21;10.57;;;3.97;;
60714;SDS011;46564;53.096;8.246;2023-08-17T09:49:23;11.02;;;4.15;;
60714;SDS011;46564;53.096;8.246;2023-08-17T09:54:25;10.75;;;4.00;;
60714;SDS011;46564;53.096;8.246;2023-08-17T09:59:27;10.90;;;4.03;;
60714;SDS011;46564;53.096;8.246;2023-08-17T10:04:28;10.07;;;3.50;;
60714;SDS011;46564;53.096;8.246;2023-08-17T10:09:36;7.20;;;3.30;;
60714;SDS011;46564;53.096;8.246;2023-08-17T10:14:45;15.55;;;3.78;;
60714;SDS011;46564;53.096;8.246;2023-08-17T10:19:54;7.88;;;3.10;;
60714;SDS011;46564;53.096;8.246;2023-08-17T10:25:00;7.28;;;3.13;;
60714;SDS011;46564;53.096;8.246;2023-08-17T10:30:03;5.72;;;2.72;;
60714;SDS011;46564;53.096;8.246;2023-08-17T10:35:09;7.10;;;2.60;;
60714;SDS011;46564;53.096;8.246;2023-08-17T10:40:11;9.45;;;2.28;;
60714;SDS011;46564;53.096;8.246;2023-08-17T10:50:23;7.68;;;2.20;;
60714;SDS011;46564;53.096;8.246;2023-08-17T10:55:35;6.47;;;1.90;;
60714;SDS011;46564;53.096;8.246;2023-08-17T11:00:38;5.53;;;1.98;;
60714;SDS011;46564;53.096;8.246;2023-08-17T11:05:41;4.40;;;2.00;;
60714;SDS011;46564;53.096;8.246;2023-08-17T11:16:03;5.40;;;2.13;;
60714;SDS011;46564;53.096;8.246;2023-08-17T11:21:06;4.95;;;2.00;;
60714;SDS011;46564;53.096;8.246;2023-08-17T11:26:08;6.15;;;2.08;;
60714;SDS011;46564;53.096;8.246;2023-08-17T11:31:10;6.90;;;1.92;;
60714;SDS011;46564;53.096;8.246;2023-08-17T11:36:13;7.13;;;2.10;;
60714;SDS011;46564;53.096;8.246;2023-08-17T11:41:14;4.45;;;1.70;;
60714;SDS011;46564;53.096;8.246;2023-08-17T11:46:19;7.50;;;1.40;;
60714;SDS011;46564;53.096;8.246;2023-08-17T11:51:28;4.68;;;1.60;;
60714;SDS011;46564;53.096;8.246;2023-08-17T11:56:30;6.93;;;1.52;;
60714;SDS011;46564;53.096;8.246;2023-08-17T12:01:32;4.63;;;1.52;;
60714;SDS011;46564;53.096;8.246;2023-08-17T12:06:34;3.83;;;1.60;;
60714;SDS011;46564;53.096;8.246;2023-08-17T12:11:38;4.22;;;1.48;;
60714;SDS011;46564;53.096;8.246;2023-08-17T12:16:46;2.85;;;1.25;;
60714;SDS011;46564;53.096;8.246;2023-08-17T12:21:48;4.53;;;1.50;;
60714;SDS011;46564;53.096;8.246;2023-08-17T12:26:50;4.32;;;1.35;;
60714;SDS011;46564;53.096;8.246;2023-08-17T12:31:58;3.00;;;1.35;;
60714;SDS011;46564;53.096;8.246;2023-08-17T12:36:59;4.25;;;1.58;;
60714;SDS011;46564;53.096;8.246;2023-08-17T12:42:01;3.13;;;1.30;;
60714;SDS011;46564;53.096;8.246;2023-08-17T12:47:03;2.45;;;1.35;;
60714;SDS011;46564;53.096;8.246;2023-08-17T12:52:05;2.95;;;1.35;;
60714;SDS011;46564;53.096;8.246;2023-08-17T12:57:06;3.55;;;1.38;;
60714;SDS011;46564;53.096;8.246;2023-08-17T13:02:13;4.30;;;1.63;;
60714;SDS011;46564;53.096;8.246;2023-08-17T13:07:14;2.50;;;1.20;;
60714;SDS011;46564;53.096;8.246;2023-08-17T13:12:15;4.88;;;1.08;;
60714;SDS011;46564;53.096;8.246;2023-08-17T13:17:17;3.22;;;1.27;;
60714;SDS011;46564;53.096;8.246;2023-08-17T13:22:18;2.25;;;1.30;;
60714;SDS011;46564;53.096;8.246;2023-08-17T13:27:20;3.70;;;1.30;;
60714;SDS011;46564;53.096;8.246;2023-08-17T13:32:21;4.43;;;1.30;;
60714;SDS011;46564;53.096;8.246;2023-08-17T13:37:23;2.33;;;1.48;;
60714;SDS011;46564;53.096;8.246;2023-08-17T13:42:24;5.25;;;1.80;;
60714;SDS011;46564;53.096;8.246;2023-08-17T13:47:26;3.80;;;1.80;;
60714;SDS011;46564;53.096;8.246;2023-08-17T13:52:27;4.60;;;2.13;;
60714;SDS011;46564;53.096;8.246;2023-08-17T13:57:29;6.78;;;3.25;;
60714;SDS011;46564;53.096;8.246;2023-08-17T14:02:31;7.90;;;3.97;;
60714;SDS011;46564;53.096;8.246;2023-08-17T14:07:33;10.02;;;4.00;;
60714;SDS011;46564;53.096;8.246;2023-08-17T14:12:35;11.77;;;5.18;;
60714;SDS011;46564;53.096;8.246;2023-08-17T14:17:36;8.57;;;4.78;;
60714;SDS011;46564;53.096;8.246;2023-08-17T14:22:37;7.20;;;4.72;;
60714;SDS011;46564;53.096;8.246;2023-08-17T14:27:39;8.60;;;5.03;;
60714;SDS011;46564;53.096;8.246;2023-08-17T14:32:40;4.13;;;2.60;;
60714;SDS011;46564;53.096;8.246;2023-08-17T14:37:42;2.05;;;1.42;;
60714;SDS011;46564;53.096;8.246;2023-08-17T14:42:43;2.58;;;1.20;;
60714;SDS011;46564;53.096;8.246;2023-08-17T14:47:45;2.55;;;0.85;;
60714;SDS011;46564;53.096;8.246;2023-08-17T14:52:46;1.85;;;0.90;;
60714;SDS011;46564;53.096;8.246;2023-08-17T14:57:48;3.45;;;0.70;;
60714;SDS011;46564;53.096;8.246;2023-08-17T15:02:49;4.00;;;1.15;;
60714;SDS011;46564;53.096;8.246;2023-08-17T15:07:51;1.40;;;0.85;;
60714;SDS011;46564;53.096;8.246;2023-08-17T15:12:52;2.42;;;0.75;;
60714;SDS011;46564;53.096;8.246;2023-08-17T15:17:54;1.95;;;0.90;;
60714;SDS011;46564;53.096;8.246;2023-08-17T15:22:55;3.28;;;1.15;;
60714;SDS011;46564;53.096;8.246;2023-08-17T15:27:57;2.35;;;1.02;;
60714;SDS011;46564;53.096;8.246;2023-08-17T15:32:58;1.13;;;0.80;;
60714;SDS011;46564;53.096;8.246;2023-08-17T15:38:00;2.70;;;0.70;;
60714;SDS011;46564;53.096;8.246;2023-08-17T15:43:01;3.85;;;1.00;;
60714;SDS011;46564;53.096;8.246;2023-08-17T15:48:03;2.13;;;0.82;;
60714;SDS011;46564;53.096;8.246;2023-08-17T15:53:04;4.38;;;0.70;;
60714;SDS011;46564;53.096;8.246;2023-08-17T15:58:05;2.08;;;0.73;;
60714;SDS011;46564;53.096;8.246;2023-08-17T16:03:07;1.17;;;0.77;;
60714;SDS011;46564;53.096;8.246;2023-08-17T16:08:13;0.68;;;0.50;;
60714;SDS011;46564;53.096;8.246;2023-08-17T16:13:14;2.10;;;0.90;;
60714;SDS011;46564;53.096;8.246;2023-08-17T16:18:15;3.05;;;1.00;;
60714;SDS011;46564;53.096;8.246;2023-08-17T16:23:17;2.15;;;1.00;;
60714;SDS011;46564;53.096;8.246;2023-08-17T16:28:22;3.67;;;0.77;;
60714;SDS011;46564;53.096;8.246;2023-08-17T16:33:24;2.03;;;0.80;;
60714;SDS011;46564;53.096;8.246;2023-08-17T16:38:25;5.15;;;0.80;;
60714;SDS011;46564;53.096;8.246;2023-08-17T16:43:27;2.38;;;0.85;;
60714;SDS011;46564;53.096;8.246;2023-08-17T16:48:28;5.22;;;1.02;;
60714;SDS011;46564;53.096;8.246;2023-08-17T16:53:29;3.05;;;1.00;;
60714;SDS011;46564;53.096;8.246;2023-08-17T16:58:31;4.00;;;1.10;;
60714;SDS011;46564;53.096;8.246;2023-08-17T17:03:32;5.75;;;1.05;;
60714;SDS011;46564;53.096;8.246;2023-08-17T17:08:34;3.42;;;1.00;;
60714;SDS011;46564;53.096;8.246;2023-08-17T17:13:35;1.42;;;0.90;;
60714;SDS011;46564;53.096;8.246;2023-08-17T17:18:37;4.28;;;1.02;;
60714;SDS011;46564;53.096;8.246;2023-08-17T17:23:39;2.92;;;0.98;;
60714;SDS011;46564;53.096;8.246;2023-08-17T17:28:40;2.15;;;1.05;;
60714;SDS011;46564;53.096;8.246;2023-08-17T17:33:42;5.55;;;1.13;;
60714;SDS011;46564;53.096;8.246;2023-08-17T17:38:43;1.85;;;1.20;;
60714;SDS011;46564;53.096;8.246;2023-08-17T17:43:45;2.78;;;1.15;;
60714;SDS011;46564;53.096;8.246;2023-08-17T17:48:46;2.40;;;1.00;;
60714;SDS011;46564;53.096;8.246;2023-08-17T17:53:47;3.22;;;1.10;;
60714;SDS011;46564;53.096;8.246;2023-08-17T17:58:49;4.57;;;1.25;;
60714;SDS011;46564;53.096;8.246;2023-08-17T18:03:50;4.05;;;1.27;;
60714;SDS011;46564;53.096;8.246;2023-08-17T18:08:52;3.90;;;1.15;;
60714;SDS011;46564;53.096;8.246;2023-08-17T18:13:53;2.30;;;0.93;;
60714;SDS011;46564;53.096;8.246;2023-08-17T18:18:55;2.92;;;1.00;;
60714;SDS011;46564;53.096;8.246;2023-08-17T18:23:57;5.65;;;0.98;;
60714;SDS011;46564;53.096;8.246;2023-08-17T18:28:59;1.77;;;0.77;;
60714;SDS011;46564;53.096;8.246;2023-08-17T18:34:00;1.48;;;1.10;;
60714;SDS011;46564;53.096;8.246;2023-08-17T18:39:02;1.08;;;0.70;;
60714;SDS011;46564;53.096;8.246;2023-08-17T18:44:03;3.58;;;0.85;;
60714;SDS011;46564;53.096;8.246;2023-08-17T18:49:05;2.85;;;0.85;;
60714;SDS011;46564;53.096;8.246;2023-08-17T18:54:07;5.80;;;1.30;;
60714;SDS011;46564;53.096;8.246;2023-08-17T18:59:08;3.83;;;1.15;;
60714;SDS011;46564;53.096;8.246;2023-08-17T19:04:09;1.50;;;0.90;;
60714;SDS011;46564;53.096;8.246;2023-08-17T19:09:11;6.68;;;1.90;;
60714;SDS011;46564;53.096;8.246;2023-08-17T19:14:12;3.28;;;1.30;;
60714;SDS011;46564;53.096;8.246;2023-08-17T19:19:14;6.47;;;1.02;;
60714;SDS011;46564;53.096;8.246;2023-08-17T19:24:15;7.20;;;0.90;;
60714;SDS011;46564;53.096;8.246;2023-08-17T19:29:16;4.15;;;1.00;;
60714;SDS011;46564;53.096;8.246;2023-08-17T19:34:18;1.58;;;1.10;;
60714;SDS011;46564;53.096;8.246;2023-08-17T19:39:19;0.88;;;0.70;;
60714;SDS011;46564;53.096;8.246;2023-08-17T19:44:21;6.40;;;1.05;;
60714;SDS011;46564;53.096;8.246;2023-08-17T19:49:23;4.63;;;0.98;;
60714;SDS011;46564;53.096;8.246;2023-08-17T19:54:25;2.13;;;0.85;;
60714;SDS011;46564;53.096;8.246;2023-08-17T19:59:27;2.13;;;1.00;;
60714;SDS011;46564;53.096;8.246;2023-08-17T20:04:28;4.15;;;1.20;;
60714;SDS011;46564;53.096;8.246;2023-08-17T20:09:29;6.32;;;0.95;;
60714;SDS011;46564;53.096;8.246;2023-08-17T20:14:32;3.35;;;1.10;;
60714;SDS011;46564;53.096;8.246;2023-08-17T20:19:34;4.65;;;1.20;;
60714;SDS011;46564;53.096;8.246;2023-08-17T20:24:36;5.57;;;1.52;;
60714;SDS011;46564;53.096;8.246;2023-08-17T20:29:38;2.50;;;1.05;;
60714;SDS011;46564;53.096;8.246;2023-08-17T20:34:39;6.68;;;1.13;;
60714;SDS011;46564;53.096;8.246;2023-08-17T20:39:41;2.65;;;0.82;;
60714;SDS011;46564;53.096;8.246;2023-08-17T20:44:42;5.30;;;1.00;;
60714;SDS011;46564;53.096;8.246;2023-08-17T20:49:44;6.35;;;1.08;;
60714;SDS011;46564;53.096;8.246;2023-08-17T20:54:45;5.68;;;1.60;;
60714;SDS011;46564;53.096;8.246;2023-08-17T20:59:46;2.40;;;1.10;;
60714;SDS011;46564;53.096;8.246;2023-08-17T21:04:48;3.97;;;1.67;;
60714;SDS011;46564;53.096;8.246;2023-08-17T21:09:49;7.57;;;1.27;;
60714;SDS011;46564;53.096;8.246;2023-08-17T21:14:51;2.08;;;0.95;;
60714;SDS011;46564;53.096;8.246;2023-08-17T21:19:52;4.82;;;1.15;;
60714;SDS011;46564;53.096;8.246;2023-08-17T21:24:54;6.15;;;1.40;;
60714;SDS011;46564;53.096;8.246;2023-08-17T21:29:55;5.20;;;1.35;;
60714;SDS011;46564;53.096;8.246;2023-08-17T21:34:57;1.80;;;1.00;;
60714;SDS011;46564;53.096;8.246;2023-08-17T21:39:58;1.80;;;1.00;;
60714;SDS011;46564;53.096;8.246;2023-08-17T21:45:00;2.10;;;1.10;;
60714;SDS011;46564;53.096;8.246;2023-08-17T21:50:01;2.10;;;1.00;;
60714;SDS011;46564;53.096;8.246;2023-08-17T21:55:02;2.13;;;1.10;;
60714;SDS011;46564;53.096;8.246;2023-08-17T22:00:04;2.20;;;1.08;;
60714;SDS011;46564;53.096;8.246;2023-08-17T22:05:06;7.00;;;1.10;;
60714;SDS011;46564;53.096;8.246;2023-08-17T22:10:08;6.32;;;2.75;;
60714;SDS011;46564;53.096;8.246;2023-08-17T22:15:09;5.68;;;2.20;;
60714;SDS011;46564;53.096;8.246;2023-08-17T22:20:11;2.83;;;1.58;;
60714;SDS011;46564;53.096;8.246;2023-08-17T22:25:12;3.80;;;1.33;;
60714;SDS011;46564;53.096;8.246;2023-08-17T22:30:13;3.05;;;1.40;;
60714;SDS011;46564;53.096;8.246;2023-08-17T22:35:15;4.75;;;1.30;;
60714;SDS011;46564;53.096;8.246;2023-08-17T22:40:16;3.78;;;1.30;;
60714;SDS011;46564;53.096;8.246;2023-08-17T22:45:18;5.47;;;1.20;;
60714;SDS011;46564;53.096;8.246;2023-08-17T22:50:19;2.42;;;1.17;;
60714;SDS011;46564;53.096;8.246;2023-08-17T22:55:21;4.50;;;1.52;;
60714;SDS011;46564;53.096;8.246;2023-08-17T23:00:22;5.47;;;1.30;;
60714;SDS011;46564;53.096;8.246;2023-08-17T23:05:23;3.13;;;1.25;;
60714;SDS011;46564;53.096;8.246;2023-08-17T23:10:25;3.75;;;1.42;;
60714;SDS011;46564;53.096;8.246;2023-08-17T23:15:27;4.93;;;1.10;;
60714;SDS011;46564;53.096;8.246;2023-08-17T23:20:28;1.27;;;1.00;;
60714;SDS011;46564;53.096;8.246;2023-08-17T23:25:30;5.70;;;1.20;;
60714;SDS011;46564;53.096;8.246;2023-08-17T23:30:31;2.55;;;1.20;;
60714;SDS011;46564;53.096;8.246;2023-08-17T23:35:33;2.33;;;1.17;;
60714;SDS011;46564;53.096;8.246;2023-08-17T23:40:35;10.65;;;1.42;;
60714;SDS011;46564;53.096;8.246;2023-08-17T23:45:36;2.80;;;1.25;;
60714;SDS011;46564;53.096;8.246;2023-08-17T23:50:38;4.28;;;1.30;;
60714;SDS011;46564;53.096;8.246;2023-08-17T23:55:39;6.07;;;1.60;;
